createdAt,value
2018-02-03T00:00:55.523Z,8.24
2018-02-03T00:03:23.757Z,8.28
2018-02-03T00:05:52.200Z,8.30
2018-02-03T00:08:20.148Z,8.30
2018-02-03T00:10:52.467Z,8.30
2018-02-03T00:13:20.824Z,8.25
2018-02-03T00:15:49.265Z,8.15
2018-02-03T00:18:18.102Z,8.15
2018-02-03T00:20:49.604Z,8.06
2018-02-03T00:23:22.222Z,7.97
2018-02-03T00:25:51.070Z,7.92
2018-02-03T00:28:23.998Z,7.91
2018-02-03T00:30:52.637Z,7.82
2018-02-03T00:33:20.545Z,7.75
2018-02-03T00:35:49.368Z,7.71
2018-02-03T00:38:18.485Z,7.73
2018-02-03T00:40:46.361Z,7.72
2018-02-03T00:43:14.231Z,7.75
2018-02-03T00:45:43.864Z,7.81
2018-02-03T00:48:11.587Z,7.86
2018-02-03T00:50:40.046Z,7.89
2018-02-03T00:53:08.623Z,7.92
2018-02-03T00:55:36.498Z,7.98
2018-02-03T00:58:04.534Z,8.04
2018-02-03T01:00:32.570Z,8.08
2018-02-03T01:03:00.324Z,8.10
2018-02-03T01:05:28.591Z,8.08
2018-02-03T01:07:56.463Z,8.07
2018-02-03T01:10:26.461Z,8.05
2018-02-03T01:12:55.716Z,8.03
2018-02-03T01:15:24.024Z,8.00
2018-02-03T01:17:51.797Z,7.96
2018-02-03T01:20:19.851Z,7.95
2018-02-03T01:22:47.935Z,7.94
2018-02-03T01:25:19.285Z,7.87
2018-02-03T01:27:50.422Z,7.86
2018-02-03T01:30:20.234Z,7.84
2018-02-03T01:32:49.208Z,7.80
2018-02-03T01:35:18.173Z,7.79
2018-02-03T01:37:47.310Z,7.76
2018-02-03T01:40:16.279Z,7.71
2018-02-03T01:42:45.306Z,7.68
2018-02-03T01:45:13.914Z,7.61
2018-02-03T01:47:53.699Z,7.55
2018-02-03T01:50:23.933Z,7.49
2018-02-03T01:52:52.287Z,7.50
2018-02-03T01:55:25.393Z,7.53
2018-02-03T01:57:54.238Z,7.60
2018-02-03T02:00:28.144Z,7.64
2018-02-03T02:02:57.040Z,7.68
2018-02-03T02:05:25.736Z,7.66
2018-02-03T02:07:53.621Z,7.61
2018-02-03T02:10:23.000Z,7.61
2018-02-03T02:12:50.781Z,7.61
2018-02-03T02:15:19.453Z,7.65
2018-02-03T02:17:47.908Z,7.71
2018-02-03T02:20:20.868Z,7.76
2018-02-03T02:22:48.631Z,7.78
2018-02-03T02:25:18.057Z,7.85
2018-02-03T02:27:47.849Z,7.91
2018-02-03T02:30:16.552Z,7.89
2018-02-03T02:32:44.468Z,7.91
2018-02-03T02:35:12.330Z,7.89
2018-02-03T02:37:40.098Z,7.87
2018-02-03T02:40:07.945Z,7.83
2018-02-03T02:42:36.612Z,7.79
2018-02-03T02:45:04.410Z,7.77
2018-02-03T02:47:32.675Z,7.81
2018-02-03T02:50:03.233Z,7.85
2018-02-03T02:52:30.999Z,7.95
2018-02-03T02:54:58.918Z,8.08
2018-02-03T02:57:27.211Z,8.23
2018-02-03T02:59:56.055Z,8.38
2018-02-03T03:02:24.870Z,8.51
2018-02-03T03:04:54.318Z,8.58
2018-02-03T03:07:22.063Z,8.64
2018-02-03T03:09:51.921Z,8.68
2018-02-03T03:12:25.366Z,8.72
2018-02-03T03:14:53.170Z,8.78
2018-02-03T03:17:21.704Z,8.79
2018-02-03T03:19:50.706Z,8.81
2018-02-03T03:22:18.734Z,8.81
2018-02-03T03:24:46.502Z,8.81
2018-02-03T03:27:14.210Z,8.76
2018-02-03T03:29:42.115Z,8.75
2018-02-03T03:32:10.428Z,8.78
2018-02-03T03:34:38.984Z,8.85
2018-02-03T03:37:07.684Z,8.91
2018-02-03T03:39:37.277Z,8.94
2018-02-03T03:42:05.236Z,8.97
2018-02-03T03:44:33.716Z,8.93
2018-02-03T03:47:01.414Z,8.88
2018-02-03T03:49:30.400Z,8.88
2018-02-03T03:51:59.215Z,8.81
2018-02-03T03:54:31.665Z,8.70
2018-02-03T03:56:59.926Z,8.77
2018-02-03T03:59:29.968Z,8.83
2018-02-03T04:01:57.769Z,8.94
2018-02-03T04:04:25.596Z,9.06
2018-02-03T04:06:53.395Z,9.14
2018-02-03T04:09:22.030Z,9.24
2018-02-03T04:11:50.506Z,9.31
2018-02-03T04:14:19.106Z,9.41
2018-02-03T04:16:47.031Z,9.50
2018-02-03T04:19:15.764Z,9.53
2018-02-03T04:21:43.545Z,9.56
2018-02-03T04:24:11.812Z,9.61
2018-02-03T04:26:39.636Z,9.68
2018-02-03T04:29:08.540Z,9.74
2018-02-03T04:31:37.701Z,9.80
2018-02-03T04:34:06.605Z,9.83
2018-02-03T04:36:34.337Z,9.87
2018-02-03T04:39:03.041Z,9.93
2018-02-03T04:41:31.752Z,9.98
2018-02-03T04:44:02.030Z,10.05
2018-02-03T04:46:33.646Z,10.11
2018-02-03T04:49:04.657Z,10.15
2018-02-03T04:51:33.133Z,10.18
2018-02-03T04:54:01.849Z,10.16
2018-02-03T04:56:30.200Z,10.14
2018-02-03T04:58:59.704Z,10.12
2018-02-03T05:01:27.655Z,10.14
2018-02-03T05:03:56.281Z,10.15
2018-02-03T05:06:25.271Z,10.16
2018-02-03T05:08:53.167Z,10.01
2018-02-03T05:11:22.221Z,9.96
2018-02-03T05:13:50.146Z,9.96
2018-02-03T05:19:17.492Z,10.09
2018-02-03T05:21:45.399Z,10.17
2018-02-03T05:24:12.969Z,10.20
2018-02-03T05:26:40.536Z,10.04
2018-02-03T05:29:08.158Z,9.99
2018-02-03T05:31:35.756Z,9.97
2018-02-03T05:34:03.311Z,9.97
2018-02-03T05:36:31.057Z,10.00
2018-02-03T05:38:58.731Z,10.01
2018-02-03T05:41:26.332Z,10.04
2018-02-03T05:43:54.544Z,9.99
2018-02-03T05:46:22.217Z,9.94
2018-02-03T05:48:49.821Z,9.90
2018-02-03T05:51:17.473Z,9.86
2018-02-03T05:53:45.052Z,9.87
2018-02-03T05:56:12.675Z,9.94
2018-02-03T05:58:40.552Z,10.00
2018-02-03T06:01:08.135Z,10.09
2018-02-03T06:03:35.699Z,10.15
2018-02-03T06:06:03.325Z,10.23
2018-02-03T06:08:30.896Z,10.34
2018-02-03T06:10:58.460Z,10.43
2018-02-03T06:13:26.095Z,10.52
2018-02-03T06:15:54.079Z,10.59
2018-02-03T06:18:21.639Z,10.73
2018-02-03T06:20:49.281Z,10.87
2018-02-03T06:23:16.856Z,10.99
2018-02-03T06:25:47.754Z,11.11
2018-02-03T06:30:49.654Z,11.26
2018-02-03T06:33:17.313Z,11.31
2018-02-03T06:35:44.973Z,11.43
2018-02-03T06:38:12.756Z,11.57
2018-02-03T06:40:40.418Z,11.73
2018-02-03T06:43:08.021Z,11.89
2018-02-03T06:45:36.618Z,12.03
2018-02-03T06:48:09.038Z,12.09
2018-02-03T06:50:41.707Z,12.21
2018-02-03T06:53:13.124Z,12.30
2018-02-03T06:55:43.144Z,12.40
2018-02-03T06:58:18.732Z,12.54
2018-02-03T07:00:46.417Z,12.61
2018-02-03T07:03:14.118Z,12.59
2018-02-03T07:05:41.857Z,12.65
2018-02-03T07:08:10.179Z,12.70
2018-02-03T07:10:37.858Z,12.75
2018-02-03T07:13:05.779Z,12.76
2018-02-03T07:15:33.400Z,12.71
2018-02-03T07:18:08.101Z,12.64
2018-02-03T07:20:35.826Z,12.47
2018-02-03T07:23:03.473Z,12.43
2018-02-03T07:25:31.204Z,12.39
2018-02-03T07:27:59.378Z,12.40
2018-02-03T07:30:43.173Z,12.37
2018-02-03T07:33:17.743Z,12.42
2018-02-03T07:35:45.432Z,12.42
2018-02-03T07:38:13.186Z,12.43
2018-02-03T07:40:41.958Z,12.49
2018-02-03T07:43:21.690Z,12.46
2018-02-03T07:45:49.463Z,12.48
2018-02-03T07:48:17.273Z,12.51
2018-02-03T07:50:48.728Z,12.60
2018-02-03T07:53:17.592Z,12.61
2018-02-03T07:55:45.317Z,12.67
2018-02-03T07:58:14.828Z,12.65
2018-02-03T08:00:42.621Z,12.66
2018-02-03T08:06:01.779Z,12.69
2018-02-03T08:08:36.930Z,12.77
2018-02-03T08:11:05.916Z,12.88
2018-02-03T08:13:33.562Z,13.03
2018-02-03T08:18:36.183Z,13.39
2018-02-03T08:21:03.850Z,13.51
2018-02-03T08:23:31.529Z,13.53
2018-02-03T08:25:59.557Z,13.56
2018-02-03T08:28:40.606Z,13.48
2018-02-03T08:31:08.391Z,13.50
2018-02-03T08:33:50.067Z,13.22
2018-02-03T08:36:19.955Z,13.38
2018-02-03T08:42:00.772Z,13.44
2018-02-03T08:47:37.718Z,13.51
2018-02-03T08:50:06.634Z,13.55
2018-02-03T08:52:35.931Z,13.58
2018-02-03T08:55:03.713Z,13.50
2018-02-03T08:57:31.440Z,13.46
2018-02-03T09:00:00.570Z,13.50
2018-02-03T09:02:29.226Z,13.52
2018-02-03T09:04:58.025Z,13.50
2018-02-03T09:07:25.841Z,13.61
2018-02-03T09:09:53.512Z,13.65
2018-02-03T09:12:21.183Z,13.66
2018-02-03T09:14:48.852Z,13.76
2018-02-03T09:17:18.162Z,13.83
2018-02-03T09:19:46.409Z,13.91
2018-02-03T09:22:14.064Z,13.97
2018-02-03T09:24:42.638Z,13.99
2018-02-03T09:27:11.947Z,14.07
2018-02-03T09:29:39.581Z,14.19
2018-02-03T09:32:07.685Z,14.34
2018-02-03T09:34:35.488Z,14.48
2018-02-03T09:37:04.594Z,14.56
2018-02-03T09:39:33.898Z,14.81
2018-02-03T09:42:01.706Z,14.96
2018-02-03T09:44:29.336Z,15.00
2018-02-03T09:46:57.804Z,15.04
2018-02-03T09:49:25.418Z,15.03
2018-02-03T09:51:53.044Z,15.12
2018-02-03T09:54:20.845Z,14.97
2018-02-03T09:56:49.957Z,14.91
2018-02-03T09:59:17.635Z,14.87
2018-02-03T10:01:45.410Z,15.01
2018-02-03T10:04:13.028Z,15.06
2018-02-03T10:10:01.042Z,15.11
2018-02-03T10:12:28.734Z,15.16
2018-02-03T10:14:56.346Z,15.05
2018-02-03T10:17:23.965Z,15.07
2018-02-03T10:19:51.813Z,14.95
2018-02-03T10:22:19.453Z,14.97
2018-02-03T10:24:47.165Z,15.18
2018-02-03T10:27:14.838Z,15.13
2018-02-03T10:29:42.396Z,15.09
2018-02-03T10:32:09.992Z,15.21
2018-02-03T10:34:37.655Z,15.43
2018-02-03T10:37:05.216Z,15.65
2018-02-03T10:39:33.267Z,15.75
2018-02-03T10:42:01.283Z,15.78
2018-02-03T10:44:28.906Z,15.77
2018-02-03T10:46:56.884Z,15.80
2018-02-03T10:49:24.573Z,15.75
2018-02-03T10:51:52.184Z,15.89
2018-02-03T10:54:19.857Z,15.93
2018-02-03T10:56:47.531Z,16.07
2018-02-03T10:59:15.093Z,15.99
2018-02-03T11:01:42.734Z,16.00
2018-02-03T11:04:10.429Z,15.91
2018-02-03T11:06:38.032Z,15.82
2018-02-03T11:09:05.666Z,15.81
2018-02-03T11:11:33.308Z,15.94
2018-02-03T11:14:01.381Z,15.76
2018-02-03T11:16:28.977Z,15.83
2018-02-03T11:18:56.612Z,15.79
2018-02-03T11:21:24.478Z,15.73
2018-02-03T11:23:52.065Z,15.59
2018-02-03T11:26:20.508Z,15.50
2018-02-03T11:28:48.187Z,15.42
2018-02-03T11:31:15.793Z,15.55
2018-02-03T11:33:43.480Z,15.65
2018-02-03T11:36:11.145Z,15.54
2018-02-03T11:38:38.787Z,15.52
2018-02-03T11:41:06.503Z,15.60
2018-02-03T11:43:34.519Z,15.59
2018-02-03T11:46:03.028Z,15.73
2018-02-03T11:48:30.656Z,15.76
2018-02-03T11:50:58.378Z,15.70
2018-02-03T11:53:25.970Z,15.67
2018-02-03T11:55:53.619Z,15.62
2018-02-03T11:58:21.197Z,15.71
2018-02-03T12:00:49.310Z,15.88
2018-02-03T12:03:17.145Z,16.18
2018-02-03T12:05:44.708Z,16.40
2018-02-03T12:08:12.272Z,16.14
2018-02-03T12:10:39.998Z,15.78
2018-02-03T12:13:07.650Z,15.60
2018-02-03T12:15:35.431Z,15.73
2018-02-03T12:18:03.048Z,15.81
2018-02-03T12:20:30.706Z,15.68
2018-02-03T12:22:58.755Z,15.64
2018-02-03T12:25:26.399Z,15.59
2018-02-03T12:27:53.976Z,15.49
2018-02-03T12:30:22.391Z,15.44
2018-02-03T12:32:50.026Z,15.44
2018-02-03T12:35:17.609Z,15.48
2018-02-03T12:37:45.210Z,15.45
2018-02-03T12:40:13.269Z,15.40
2018-02-03T12:42:40.843Z,15.41
2018-02-03T12:45:08.475Z,15.40
2018-02-03T12:47:36.136Z,15.43
2018-02-03T12:50:03.835Z,15.52
2018-02-03T12:52:31.512Z,15.49
2018-02-03T12:54:59.196Z,15.42
2018-02-03T12:57:26.772Z,15.37
2018-02-03T12:59:54.371Z,15.31
2018-02-03T13:02:21.993Z,15.39
2018-02-03T13:04:49.597Z,15.41
2018-02-03T13:07:17.174Z,15.47
2018-02-03T13:09:44.823Z,15.55
2018-02-03T13:12:12.392Z,15.68
2018-02-03T13:14:40.511Z,15.69
2018-02-03T13:17:08.568Z,15.67
2018-02-03T13:19:36.208Z,15.75
2018-02-03T13:22:04.642Z,15.67
2018-02-03T13:24:32.354Z,15.66
2018-02-03T13:26:59.956Z,15.54
2018-02-03T13:29:27.549Z,15.50
2018-02-03T13:31:55.341Z,15.50
2018-02-03T13:34:22.949Z,15.53
2018-02-03T13:36:50.530Z,15.50
2018-02-03T13:39:21.530Z,15.58
2018-02-03T13:41:49.097Z,15.58
2018-02-03T13:44:16.694Z,15.54
2018-02-03T13:46:44.353Z,15.43
2018-02-03T13:49:12.326Z,15.50
2018-02-03T13:51:39.921Z,15.47
2018-02-03T13:54:07.672Z,15.48
2018-02-03T13:56:35.259Z,15.44
2018-02-03T13:59:02.833Z,15.53
2018-02-03T14:01:30.709Z,15.49
2018-02-03T14:03:58.386Z,15.51
2018-02-03T14:06:26.013Z,15.52
2018-02-03T14:08:53.768Z,15.54
2018-02-03T14:11:21.349Z,15.49
2018-02-03T14:13:48.941Z,15.51
2018-02-03T14:16:16.599Z,15.44
2018-02-03T14:18:44.379Z,15.48
2018-02-03T14:21:11.964Z,15.46
2018-02-03T14:23:39.660Z,15.41
2018-02-03T14:26:12.850Z,15.40
2018-02-03T14:28:40.493Z,15.38
2018-02-03T14:31:08.108Z,15.27
2018-02-03T14:33:35.696Z,15.32
2018-02-03T14:36:03.390Z,15.30
2018-02-03T14:38:30.977Z,15.29
2018-02-03T14:40:58.565Z,15.30
2018-02-03T14:43:26.215Z,15.16
2018-02-03T14:45:53.801Z,15.18
2018-02-03T14:48:21.438Z,15.20
2018-02-03T14:50:49.091Z,15.12
2018-02-03T14:53:16.680Z,15.10
2018-02-03T14:55:44.324Z,15.06
2018-02-03T14:58:12.018Z,15.06
2018-02-03T15:00:40.251Z,14.98
2018-02-03T15:03:07.863Z,15.06
2018-02-03T15:05:35.520Z,15.00
2018-02-03T15:08:03.135Z,15.00
2018-02-03T15:10:30.710Z,15.00
2018-02-03T15:12:59.066Z,14.92
2018-02-03T15:15:26.653Z,14.94
2018-02-03T15:17:54.242Z,14.89
2018-02-03T15:20:21.879Z,14.86
2018-02-03T15:22:49.454Z,14.84
2018-02-03T15:25:17.079Z,14.80
2018-02-03T15:27:44.810Z,14.76
2018-02-03T15:30:12.393Z,14.69
2018-02-03T15:32:39.973Z,14.67
2018-02-03T15:35:08.062Z,14.59
2018-02-03T15:37:35.660Z,14.57
2018-02-03T15:40:03.244Z,14.52
2018-02-03T15:42:30.956Z,14.53
2018-02-03T15:44:58.594Z,14.47
2018-02-03T15:47:26.164Z,14.36
2018-02-03T15:49:53.828Z,14.40
2018-02-03T15:52:21.403Z,14.38
2018-02-03T15:54:48.989Z,14.36
2018-02-03T15:57:16.649Z,14.38
2018-02-03T15:59:44.261Z,14.31
2018-02-03T16:02:12.702Z,14.37
2018-02-03T16:04:40.582Z,14.35
2018-02-03T16:07:08.190Z,14.32
2018-02-03T16:09:36.671Z,14.29
2018-02-03T16:12:04.354Z,14.32
2018-02-03T16:14:31.912Z,14.34
2018-02-03T16:16:59.866Z,14.32
2018-02-03T16:19:27.489Z,14.35
2018-02-03T16:21:55.058Z,14.40
2018-02-03T16:24:22.632Z,14.36
2018-02-03T16:26:50.315Z,14.40
2018-02-03T16:29:18.063Z,14.38
2018-02-03T16:31:45.694Z,14.43
2018-02-03T16:34:13.342Z,14.44
2018-02-03T16:36:40.940Z,14.40
2018-02-03T16:39:08.501Z,14.46
2018-02-03T16:41:36.169Z,14.48
2018-02-03T16:44:03.746Z,14.49
2018-02-03T16:46:31.375Z,14.53
2018-02-03T16:48:59.005Z,14.53
2018-02-03T16:51:26.584Z,14.57
2018-02-03T16:53:54.214Z,14.54
2018-02-03T16:56:29.708Z,14.57
2018-02-03T16:58:57.305Z,14.62
2018-02-03T17:01:24.869Z,14.53
2018-02-03T17:03:52.494Z,14.52
2018-02-03T17:06:20.073Z,14.57
2018-02-03T17:08:47.661Z,14.52
2018-02-03T17:11:15.302Z,14.52
2018-02-03T17:13:42.885Z,14.48
2018-02-03T17:16:10.472Z,14.41
2018-02-03T17:18:38.882Z,14.35
2018-02-03T17:21:06.465Z,14.23
2018-02-03T17:23:34.078Z,14.24
2018-02-03T17:26:01.718Z,14.15
2018-02-03T17:28:29.288Z,14.17
2018-02-03T17:30:57.023Z,14.11
2018-02-03T17:33:24.705Z,14.11
2018-02-03T17:35:52.290Z,14.09
2018-02-03T17:38:25.521Z,14.07
2018-02-03T17:40:53.149Z,14.07
2018-02-03T17:43:20.726Z,14.06
2018-02-03T17:45:53.843Z,14.11
2018-02-03T17:48:21.431Z,14.10
2018-02-03T17:50:49.036Z,14.12
2018-02-03T17:53:16.677Z,14.10
2018-02-03T17:55:49.760Z,14.10
2018-02-03T17:58:17.506Z,14.06
2018-02-03T18:00:45.196Z,14.11
2018-02-03T18:03:12.801Z,14.12
2018-02-03T18:05:40.446Z,14.08
2018-02-03T18:08:08.114Z,14.08
2018-02-03T18:10:35.721Z,14.12
2018-02-03T18:13:03.372Z,14.08
2018-02-03T18:15:30.938Z,14.16
2018-02-03T18:17:58.496Z,14.16
2018-02-03T18:20:26.855Z,14.14
2018-02-03T18:22:54.460Z,14.10
2018-02-03T18:25:22.666Z,14.10
2018-02-03T18:27:50.331Z,14.10
2018-02-03T18:30:18.010Z,14.05
2018-02-03T18:32:45.705Z,14.03
2018-02-03T18:35:13.392Z,14.05
2018-02-03T18:37:41.506Z,14.10
2018-02-03T18:40:09.125Z,14.04
2018-02-03T18:42:37.231Z,14.04
2018-02-03T18:45:04.884Z,14.05
2018-02-03T18:47:32.570Z,14.01
2018-02-03T18:50:00.188Z,14.04
2018-02-03T18:52:27.765Z,14.09
2018-02-03T18:54:55.522Z,14.02
2018-02-03T18:57:23.394Z,14.07
2018-02-03T18:59:50.994Z,14.09
2018-02-03T19:02:18.630Z,14.05
2018-02-03T19:04:46.274Z,14.07
2018-02-03T19:07:13.971Z,14.08
2018-02-03T19:09:41.552Z,13.97
2018-02-03T19:12:09.197Z,13.91
2018-02-03T19:14:36.813Z,13.91
2018-02-03T19:17:04.390Z,13.91
2018-02-03T19:19:32.093Z,13.88
2018-02-03T19:21:59.716Z,13.87
2018-02-03T19:24:28.234Z,13.88
2018-02-03T19:26:55.896Z,13.92
2018-02-03T19:29:23.472Z,13.97
2018-02-03T19:31:51.062Z,14.03
2018-02-03T19:34:18.889Z,14.06
2018-02-03T19:36:46.486Z,14.10
2018-02-03T19:39:14.081Z,14.15
2018-02-03T19:41:42.128Z,14.12
2018-02-03T19:44:09.727Z,14.15
2018-02-03T19:46:37.308Z,14.20
2018-02-03T19:49:04.963Z,14.26
2018-02-03T19:51:32.606Z,14.26
2018-02-03T19:54:00.221Z,14.29
2018-02-03T19:56:27.915Z,14.36
2018-02-03T19:58:55.521Z,14.39
2018-02-03T20:01:24.097Z,14.37
2018-02-03T20:03:51.766Z,14.40
2018-02-03T20:06:19.346Z,14.43
2018-02-03T20:08:46.993Z,14.41
2018-02-03T20:11:14.678Z,14.42
2018-02-03T20:13:42.429Z,14.46
2018-02-03T20:16:10.210Z,14.44
2018-02-03T20:18:37.869Z,14.46
2018-02-03T20:21:05.433Z,14.46
2018-02-03T20:23:33.014Z,14.46
2018-02-03T20:26:00.823Z,14.47
2018-02-03T20:28:28.457Z,14.43
2018-02-03T20:30:56.056Z,14.44
2018-02-03T20:33:23.762Z,14.41
2018-02-03T20:35:51.502Z,14.43
2018-02-03T20:38:19.111Z,14.39
2018-02-03T20:40:46.793Z,14.36
2018-02-03T20:43:14.352Z,14.38
2018-02-03T20:45:41.953Z,14.37
2018-02-03T20:48:09.624Z,14.36
2018-02-03T20:50:37.207Z,14.33
2018-02-03T20:53:04.871Z,14.32
2018-02-03T20:55:32.499Z,14.32
2018-02-03T20:58:00.092Z,14.26
2018-02-03T21:00:27.785Z,14.24
2018-02-03T21:02:55.403Z,14.18
2018-02-03T21:05:22.991Z,14.18
2018-02-03T21:07:50.593Z,14.20
2018-02-03T21:10:18.285Z,14.22
2018-02-03T21:12:45.881Z,14.20
2018-02-03T21:15:14.242Z,14.23
2018-02-03T21:17:41.869Z,14.22
2018-02-03T21:20:09.464Z,14.19
2018-02-03T21:22:37.106Z,14.21
2018-02-03T21:25:04.758Z,14.23
2018-02-03T21:27:32.349Z,14.23
2018-02-03T21:29:59.916Z,14.19
2018-02-03T21:32:28.232Z,14.19
2018-02-03T21:34:55.829Z,14.23
2018-02-03T21:37:23.528Z,14.25
2018-02-03T21:39:51.406Z,14.21
2018-02-03T21:42:19.077Z,14.18
2018-02-03T21:44:46.668Z,14.16
2018-02-03T21:47:14.358Z,14.12
2018-02-03T21:49:41.925Z,14.14
2018-02-03T21:52:09.973Z,14.08
2018-02-03T21:54:37.611Z,14.12
2018-02-03T21:57:05.195Z,14.09
2018-02-03T21:59:32.785Z,14.12
2018-02-03T22:02:00.401Z,14.11
2018-02-03T22:04:28.550Z,14.12
2018-02-03T22:06:56.790Z,14.13
2018-02-03T22:09:25.267Z,14.10
2018-02-03T22:11:53.582Z,14.08
2018-02-03T22:14:21.502Z,14.06
2018-02-03T22:16:49.537Z,14.02
2018-02-03T22:19:17.384Z,13.99
2018-02-03T22:21:45.666Z,13.99
2018-02-03T22:24:14.366Z,13.96
2018-02-03T22:26:43.070Z,13.96
2018-02-03T22:29:11.340Z,13.90
2018-02-03T22:31:39.505Z,13.90
2018-02-03T22:34:07.382Z,13.92
2018-02-03T22:36:35.227Z,13.92
2018-02-03T22:39:03.380Z,13.91
2018-02-03T22:41:31.653Z,13.95
2018-02-03T22:43:59.913Z,13.91
2018-02-03T22:46:27.918Z,14.00
2018-02-03T22:48:55.789Z,14.03
2018-02-03T22:51:23.717Z,14.06
2018-02-03T22:53:52.144Z,14.08
2018-02-03T22:56:20.040Z,14.14
2018-02-03T22:58:48.303Z,14.16
2018-02-03T23:01:18.716Z,14.19
2018-02-03T23:03:46.984Z,14.26
2018-02-03T23:06:16.070Z,14.27
2018-02-03T23:08:44.077Z,14.33
2018-02-03T23:11:11.986Z,14.35
2018-02-03T23:13:39.836Z,14.36
2018-02-03T23:16:07.892Z,14.39
2018-02-03T23:18:35.709Z,14.38
2018-02-03T23:21:03.985Z,14.46
2018-02-03T23:23:31.954Z,14.46
2018-02-03T23:26:00.210Z,14.44
2018-02-03T23:28:28.464Z,14.39
2018-02-03T23:30:56.677Z,14.40
2018-02-03T23:33:24.758Z,14.44
2018-02-03T23:35:52.582Z,14.46
2018-02-03T23:38:20.872Z,14.50
2018-02-03T23:40:48.993Z,14.50
2018-02-03T23:43:16.849Z,14.48
2018-02-03T23:45:45.193Z,14.50
2018-02-03T23:48:13.013Z,14.49
2018-02-03T23:50:41.000Z,14.51
2018-02-03T23:53:09.146Z,14.48
2018-02-03T23:55:37.023Z,14.45
2018-02-03T23:58:04.800Z,14.44
